Time;durP1;ratioP1;P1;durP2;ratioP2;P2;SDS_P1;SDS_P2;PMS_P1;PMS_P2;Temp;Humidity;BMP_temperature;BMP_pressure;BME280_temperature;BME280_humidity;BME280_pressure;Samples;Min_cycle;Max_cycle;Signal;HPM_P1;HPM_P2
2023/07/01 00:02:18;;;;;;;4.15;3.00;;;20.10;99.90;;;;;;4992083;28;20105;-68
2023/07/01 00:05:06;;;;;;;3.63;3.00;;;20.10;99.90;;;;;;4991190;28;20033;-68
2023/07/01 00:07:52;;;;;;;6.00;3.22;;;20.10;99.90;;;;;;4995431;28;20137;-68
2023/07/01 00:10:38;;;;;;;4.57;3.30;;;20.10;99.90;;;;;;4998363;28;20116;-68
2023/07/01 00:13:24;;;;;;;6.15;2.97;;;20.00;99.90;;;;;;5007667;28;20030;-68
2023/07/01 00:16:13;;;;;;;4.10;3.05;;;20.10;99.90;;;;;;5007037;28;20068;-68
2023/07/01 00:18:59;;;;;;;5.50;3.10;;;20.00;99.90;;;;;;4989621;28;20108;-68
2023/07/01 00:21:45;;;;;;;4.35;3.17;;;20.10;99.90;;;;;;4993120;28;20116;-68
2023/07/01 00:24:31;;;;;;;4.45;2.63;;;20.10;99.90;;;;;;5010063;28;20034;-67
2023/07/01 00:27:17;;;;;;;5.80;2.85;;;20.10;99.90;;;;;;5007405;28;20030;-67
2023/07/01 00:30:04;;;;;;;5.30;2.75;;;20.10;99.90;;;;;;5008773;28;20061;-67
2023/07/01 00:32:50;;;;;;;3.95;2.63;;;20.10;99.90;;;;;;4997946;28;20034;-67
2023/07/01 00:35:36;;;;;;;5.03;2.67;;;20.10;99.90;;;;;;4997526;28;20048;-69
2023/07/01 00:38:22;;;;;;;4.95;3.15;;;20.10;99.90;;;;;;4997604;28;20554;-69
2023/07/01 00:41:08;;;;;;;4.82;2.97;;;20.10;99.90;;;;;;4996970;28;20041;-69
2023/07/01 00:43:54;;;;;;;5.68;3.00;;;20.10;99.90;;;;;;4994049;28;20428;-69
2023/07/01 00:46:40;;;;;;;3.83;2.78;;;20.20;99.90;;;;;;4998573;28;20403;-69
2023/07/01 00:49:26;;;;;;;4.95;2.90;;;20.20;99.90;;;;;;5013480;28;20041;-69
2023/07/01 00:52:12;;;;;;;6.05;3.28;;;20.20;99.90;;;;;;5013284;28;20096;-69
2023/07/01 00:54:58;;;;;;;5.80;2.92;;;20.20;99.90;;;;;;5014063;28;20030;-69
2023/07/01 00:57:44;;;;;;;4.70;3.33;;;20.20;99.90;;;;;;5004091;28;20067;-69
2023/07/01 01:00:30;;;;;;;8.20;3.03;;;20.20;99.90;;;;;;5001799;28;20041;-68
2023/07/01 01:03:36;;;;;;;6.57;3.65;;;20.20;99.90;;;;;;5008914;28;20042;-68
2023/07/01 01:06:33;;;;;;;6.55;3.22;;;20.20;99.90;;;;;;5012300;28;20038;-68
2023/07/01 01:09:31;;;;;;;3.28;2.55;;;20.20;99.90;;;;;;4992243;28;20042;-68
2023/07/01 01:12:19;;;;;;;4.65;2.97;;;20.20;99.90;;;;;;4998863;28;20073;-68
2023/07/01 01:15:08;;;;;;;4.07;2.85;;;20.20;99.90;;;;;;5003835;28;20031;-68
2023/07/01 01:17:57;;;;;;;5.38;2.92;;;20.20;99.90;;;;;;4995187;28;20109;-67
2023/07/01 01:20:44;;;;;;;4.70;3.22;;;20.20;99.90;;;;;;4994137;28;20176;-67
2023/07/01 01:23:38;;;;;;;4.85;3.20;;;20.20;99.90;;;;;;4994938;28;20509;-67
2023/07/01 01:26:28;;;;;;;7.07;3.60;;;20.20;99.90;;;;;;4994713;28;20502;-67
2023/07/01 01:29:14;;;;;;;7.85;3.50;;;20.20;99.90;;;;;;4994677;28;20046;-67
2023/07/01 01:31:59;;;;;;;4.43;2.88;;;20.20;99.90;;;;;;4998302;28;20045;-67
2023/07/01 01:34:46;;;;;;;5.70;3.35;;;20.10;99.90;;;;;;5009599;28;20061;-67
2023/07/01 01:37:42;;;;;;;3.97;3.10;;;20.10;99.90;;;;;;5011317;28;20108;-67
2023/07/01 01:40:37;;;;;;;4.57;3.67;;;20.10;99.90;;;;;;5011660;28;20041;-67
2023/07/01 01:43:41;;;;;;;4.15;2.95;;;20.10;99.90;;;;;;5009682;28;20040;-67
2023/07/01 01:46:28;;;;;;;4.75;3.20;;;20.10;99.90;;;;;;5009298;28;20045;-68
2023/07/01 01:49:14;;;;;;;4.68;3.35;;;20.10;99.90;;;;;;4993949;28;20034;-68
2023/07/01 01:52:03;;;;;;;5.78;3.42;;;20.10;99.90;;;;;;4995693;28;20085;-66
2023/07/01 01:54:54;;;;;;;4.90;3.35;;;20.10;99.90;;;;;;5012153;28;20036;-66
2023/07/01 01:57:41;;;;;;;4.90;3.72;;;20.00;99.90;;;;;;5009627;28;20037;-66
2023/07/01 02:00:27;;;;;;;8.00;4.18;;;20.00;99.90;;;;;;5013010;28;20457;-67
2023/07/01 02:03:13;;;;;;;6.65;3.97;;;20.00;99.90;;;;;;5009442;28;20034;-67
2023/07/01 02:05:59;;;;;;;4.60;3.60;;;20.00;99.90;;;;;;4992329;28;20038;-68
2023/07/01 02:08:46;;;;;;;5.68;3.65;;;20.00;99.90;;;;;;5007866;28;20080;-67
2023/07/01 02:11:32;;;;;;;5.53;3.50;;;20.00;99.90;;;;;;5000454;28;20089;-67
2023/07/01 02:14:17;;;;;;;6.50;3.90;;;20.00;99.90;;;;;;4993732;28;20456;-66
2023/07/01 02:17:04;;;;;;;7.30;3.90;;;19.90;99.90;;;;;;5000184;28;20045;-67
2023/07/01 02:19:50;;;;;;;4.50;2.90;;;20.00;99.90;;;;;;5012815;28;20037;-66
2023/07/01 02:22:36;;;;;;;5.63;4.18;;;19.90;99.90;;;;;;5007336;28;20406;-66
2023/07/01 02:25:22;;;;;;;7.10;3.53;;;19.90;99.90;;;;;;5012949;28;20557;-67
2023/07/01 02:28:08;;;;;;;5.65;3.63;;;19.90;99.90;;;;;;5010613;28;20042;-67
2023/07/01 02:30:54;;;;;;;4.68;3.50;;;19.90;99.90;;;;;;5011286;28;20414;-66
2023/07/01 02:33:40;;;;;;;5.70;3.80;;;19.90;99.90;;;;;;4993789;28;20034;-66
2023/07/01 02:36:26;;;;;;;4.90;3.50;;;19.90;99.90;;;;;;4993036;28;20061;-66
2023/07/01 02:39:12;;;;;;;5.38;3.88;;;19.80;99.90;;;;;;4998336;28;20030;-66
2023/07/01 02:41:58;;;;;;;5.93;3.72;;;19.80;99.90;;;;;;4993057;28;20034;-66
2023/07/01 02:44:44;;;;;;;5.18;3.78;;;19.80;99.90;;;;;;5000705;28;20426;-67
2023/07/01 02:47:30;;;;;;;3.55;3.03;;;19.80;99.90;;;;;;5000891;28;20100;-66
2023/07/01 02:50:16;;;;;;;5.20;3.95;;;19.80;99.90;;;;;;5004722;28;20082;-66
2023/07/01 02:53:02;;;;;;;6.45;4.28;;;19.80;99.90;;;;;;5004214;28;20041;-67
2023/07/01 02:55:48;;;;;;;5.43;3.60;;;19.80;99.90;;;;;;5002351;28;20387;-68
2023/07/01 02:58:34;;;;;;;5.28;3.95;;;19.80;99.90;;;;;;5007072;28;20076;-68
2023/07/01 03:01:20;;;;;;;7.35;4.78;;;19.80;99.90;;;;;;5007631;28;20041;-69
2023/07/01 03:04:06;;;;;;;5.40;3.95;;;19.70;99.90;;;;;;5003697;28;20029;-67
2023/07/01 03:06:52;;;;;;;5.22;3.70;;;19.70;99.90;;;;;;5007280;28;20105;-68
2023/07/01 03:09:38;;;;;;;5.25;4.00;;;19.70;99.90;;;;;;5011004;28;20042;-68
2023/07/01 03:12:24;;;;;;;6.10;4.25;;;19.70;99.90;;;;;;5000393;28;20494;-67
2023/07/01 03:15:10;;;;;;;6.38;4.57;;;19.70;99.90;;;;;;5011734;28;20022;-68
2023/07/01 03:17:56;;;;;;;5.75;3.88;;;19.60;99.90;;;;;;5004590;28;20137;-67
2023/07/01 03:20:42;;;;;;;6.18;4.00;;;19.60;99.90;;;;;;5010137;28;20026;-67
2023/07/01 03:23:29;;;;;;;6.25;4.47;;;19.60;99.90;;;;;;4994217;28;20073;-67
2023/07/01 03:26:16;;;;;;;5.93;3.88;;;19.60;99.90;;;;;;4992788;28;20762;-67
2023/07/01 03:29:02;;;;;;;6.53;3.97;;;19.50;99.90;;;;;;5011192;28;20068;-66
2023/07/01 03:31:48;;;;;;;5.63;4.38;;;19.50;99.90;;;;;;5007933;28;20045;-66
2023/07/01 03:34:35;;;;;;;5.63;3.92;;;19.50;99.90;;;;;;5008802;28;20516;-66
2023/07/01 03:37:21;;;;;;;8.05;4.80;;;19.50;99.90;;;;;;5004242;28;20034;-67
2023/07/01 03:40:10;;;;;;;9.15;5.43;;;19.40;99.90;;;;;;5010647;28;20069;-66
2023/07/01 03:42:56;;;;;;;7.10;4.43;;;19.40;99.90;;;;;;4998432;28;20034;-67
2023/07/01 03:45:42;;;;;;;6.93;4.60;;;19.40;99.90;;;;;;5015068;28;20034;-75
2023/07/01 03:48:29;;;;;;;5.80;3.97;;;19.40;99.90;;;;;;4997863;28;20030;-67
2023/07/01 03:51:15;;;;;;;5.75;4.60;;;19.40;99.90;;;;;;5008385;28;20054;-67
2023/07/01 03:54:01;;;;;;;6.43;4.35;;;19.40;99.90;;;;;;4990946;28;20088;-68
2023/07/01 03:56:47;;;;;;;7.15;4.68;;;19.40;99.90;;;;;;4995367;28;20065;-70
2023/07/01 03:59:33;;;;;;;6.93;4.72;;;19.40;99.90;;;;;;5004483;28;20604;-70
2023/07/01 04:02:19;;;;;;;7.10;4.45;;;19.40;99.90;;;;;;5002866;28;20485;-71
2023/07/01 04:05:09;;;;;;;8.57;5.18;;;19.50;99.90;;;;;;4993938;28;20502;-70
2023/07/01 04:07:55;;;;;;;7.55;4.20;;;19.50;99.90;;;;;;5007699;28;20061;-70
2023/07/01 04:10:41;;;;;;;6.28;4.78;;;19.50;99.90;;;;;;5007512;28;20092;-70
2023/07/01 04:13:27;;;;;;;6.45;4.32;;;19.50;99.90;;;;;;5005869;28;20310;-70
2023/07/01 04:16:13;;;;;;;7.60;4.80;;;19.60;99.90;;;;;;5008522;28;20030;-71
2023/07/01 04:18:59;;;;;;;8.30;5.18;;;19.70;99.90;;;;;;5000328;28;20068;-70
2023/07/01 04:21:45;;;;;;;7.72;4.75;;;19.80;99.90;;;;;;5004295;28;20030;-70
2023/07/01 04:24:31;;;;;;;6.68;4.70;;;19.80;99.90;;;;;;5009863;28;20145;-70
2023/07/01 04:27:17;;;;;;;6.13;4.47;;;19.90;99.90;;;;;;5006970;28;20065;-70
2023/07/01 04:30:04;;;;;;;8.45;5.43;;;20.00;99.90;;;;;;4991170;28;20041;-70
2023/07/01 04:32:50;;;;;;;6.28;4.97;;;20.10;99.90;;;;;;5006124;28;20785;-70
2023/07/01 04:35:36;;;;;;;6.32;4.47;;;20.10;99.90;;;;;;5010719;28;20053;-71
2023/07/01 04:38:22;;;;;;;7.88;4.70;;;20.10;99.90;;;;;;5005569;28;20030;-71
2023/07/01 04:41:08;;;;;;;5.63;4.80;;;20.10;99.90;;;;;;5009393;28;20033;-70
2023/07/01 04:43:54;;;;;;;6.45;4.78;;;20.10;99.90;;;;;;5002538;28;20034;-70
2023/07/01 04:46:40;;;;;;;12.90;4.72;;;20.20;99.90;;;;;;4998993;28;20053;-71
2023/07/01 04:49:26;;;;;;;6.57;4.03;;;20.20;99.90;;;;;;5010411;28;20116;-70
2023/07/01 04:52:15;;;;;;;7.75;4.97;;;20.20;99.90;;;;;;5008477;28;20409;-70
2023/07/01 04:55:00;;;;;;;8.68;4.60;;;20.20;99.90;;;;;;5008284;28;20029;-70
2023/07/01 04:57:47;;;;;;;5.07;4.10;;;20.30;99.90;;;;;;5007161;28;20053;-70
2023/07/01 05:00:33;;;;;;;12.32;4.35;;;20.30;99.90;;;;;;5006296;28;20042;-71
2023/07/01 05:03:19;;;;;;;5.95;4.38;;;20.30;99.90;;;;;;4994484;28;20030;-70
2023/07/01 05:06:05;;;;;;;5.97;4.28;;;20.40;99.90;;;;;;4994016;28;20030;-70
2023/07/01 05:08:52;;;;;;;8.70;3.97;;;20.40;99.90;;;;;;4999901;28;20057;-70
2023/07/01 05:11:38;;;;;;;5.65;4.30;;;20.50;99.90;;;;;;4995740;28;20465;-70
2023/07/01 05:14:23;;;;;;;6.47;4.22;;;20.60;99.90;;;;;;5002195;28;20026;-70
2023/07/01 05:17:09;;;;;;;6.50;4.30;;;20.60;99.90;;;;;;4991140;28;20065;-70
2023/07/01 05:19:55;;;;;;;7.63;4.53;;;20.60;99.90;;;;;;4997002;28;20049;-70
2023/07/01 05:22:41;;;;;;;6.03;4.32;;;20.70;99.90;;;;;;5009913;28;20041;-70
2023/07/01 05:25:27;;;;;;;7.13;4.93;;;20.60;99.90;;;;;;5009117;28;20380;-70
2023/07/01 05:28:13;;;;;;;6.45;4.40;;;20.70;99.90;;;;;;5011896;28;20034;-71
2023/07/01 05:30:59;;;;;;;6.05;3.95;;;20.70;99.90;;;;;;5005630;28;20049;-70
2023/07/01 05:33:45;;;;;;;5.32;4.05;;;20.70;99.90;;;;;;5011664;28;20068;-70
2023/07/01 05:36:31;;;;;;;6.20;4.90;;;20.80;99.90;;;;;;4995691;28;20483;-70
2023/07/01 05:39:17;;;;;;;8.23;3.88;;;20.80;99.90;;;;;;4994020;28;20030;-70
2023/07/01 05:42:04;;;;;;;5.10;3.97;;;20.90;99.90;;;;;;4998965;28;20038;-70
2023/07/01 05:44:50;;;;;;;6.43;4.63;;;20.90;99.90;;;;;;4991800;28;20140;-70
2023/07/01 05:47:36;;;;;;;5.32;3.83;;;20.90;99.90;;;;;;4994183;28;20061;-70
2023/07/01 05:50:22;;;;;;;7.10;4.78;;;20.90;99.90;;;;;;5008236;28;20394;-70
2023/07/01 05:53:08;;;;;;;7.03;3.75;;;20.90;99.90;;;;;;5010497;28;20038;-70
2023/07/01 05:55:54;;;;;;;4.97;3.65;;;20.90;99.90;;;;;;5008898;28;20026;-70
2023/07/01 05:58:40;;;;;;;5.43;3.88;;;20.90;99.90;;;;;;5011109;28;20050;-70
2023/07/01 06:01:27;;;;;;;7.30;4.15;;;20.90;99.90;;;;;;5001543;28;20125;-70
2023/07/01 06:04:13;;;;;;;5.22;3.70;;;20.90;99.90;;;;;;5001957;28;20052;-70
2023/07/01 06:06:59;;;;;;;4.95;3.97;;;21.00;99.90;;;;;;5009799;28;20030;-70
2023/07/01 06:09:48;;;;;;;6.20;4.00;;;21.00;99.90;;;;;;5010916;28;20034;-70
2023/07/01 06:12:34;;;;;;;6.18;3.88;;;21.00;99.90;;;;;;5010045;28;20045;-70
2023/07/01 06:15:20;;;;;;;5.63;3.95;;;21.00;99.90;;;;;;5012551;28;20145;-70
2023/07/01 06:18:06;;;;;;;5.95;3.83;;;21.00;99.90;;;;;;5009228;28;20132;-70
2023/07/01 06:20:52;;;;;;;5.93;3.47;;;21.10;99.90;;;;;;5011249;28;20034;-70
2023/07/01 06:23:38;;;;;;;4.45;3.38;;;21.20;99.90;;;;;;5010172;28;20030;-70
2023/07/01 06:26:24;;;;;;;5.95;4.63;;;21.20;99.70;;;;;;5010299;28;20056;-70
2023/07/01 06:29:10;;;;;;;5.57;3.28;;;21.30;99.60;;;;;;5012547;28;20096;-70
2023/07/01 06:31:56;;;;;;;4.60;3.17;;;21.30;99.70;;;;;;5010596;28;20077;-70
2023/07/01 06:34:42;;;;;;;5.10;3.92;;;21.30;99.40;;;;;;4995174;28;20034;-69
2023/07/01 06:37:28;;;;;;;7.78;3.63;;;21.40;99.20;;;;;;5001849;28;20045;-69
2023/07/01 06:40:14;;;;;;;6.45;4.05;;;21.40;99.00;;;;;;5009149;28;20037;-69
2023/07/01 06:43:02;;;;;;;5.68;3.53;;;21.50;98.90;;;;;;4997976;28;20030;-69
2023/07/01 06:45:48;;;;;;;5.20;3.05;;;21.50;98.70;;;;;;4990746;28;20081;-69
2023/07/01 06:48:34;;;;;;;4.18;3.03;;;21.50;98.50;;;;;;5008935;28;20499;-69
2023/07/01 06:51:20;;;;;;;5.53;3.75;;;21.50;98.40;;;;;;4998691;28;20042;-69
2023/07/01 06:54:06;;;;;;;4.00;3.10;;;21.50;98.50;;;;;;5003348;28;20053;-69
2023/07/01 06:56:52;;;;;;;4.22;3.05;;;21.60;98.10;;;;;;5005141;28;20022;-70
2023/07/01 06:59:38;;;;;;;6.25;3.38;;;21.60;98.20;;;;;;5006990;28;20034;-69
2023/07/01 07:02:24;;;;;;;4.53;3.30;;;21.60;98.00;;;;;;5007942;28;20117;-68
2023/07/01 07:05:10;;;;;;;4.85;3.03;;;21.70;97.60;;;;;;5011596;28;20509;-69
2023/07/01 07:07:56;;;;;;;7.47;3.45;;;21.70;97.50;;;;;;5008788;28;20488;-69
2023/07/01 07:10:42;;;;;;;4.18;3.22;;;21.70;97.20;;;;;;5006829;28;20053;-70
2023/07/01 07:13:28;;;;;;;3.75;2.83;;;21.70;97.30;;;;;;4999138;28;20104;-68
2023/07/01 07:16:14;;;;;;;6.93;3.33;;;21.80;97.00;;;;;;5002965;28;20030;-68
2023/07/01 07:19:00;;;;;;;5.43;2.72;;;21.80;96.90;;;;;;4994597;28;20074;-67
2023/07/01 07:21:46;;;;;;;4.72;2.97;;;21.90;96.50;;;;;;5000202;28;20034;-68
2023/07/01 07:24:32;;;;;;;4.80;2.55;;;21.90;96.20;;;;;;5007797;28;20037;-68
2023/07/01 07:27:18;;;;;;;4.38;2.17;;;21.90;96.10;;;;;;4999002;28;20393;-68
2023/07/01 07:30:04;;;;;;;5.95;2.70;;;22.00;95.90;;;;;;4991115;28;20057;-68
2023/07/01 07:32:50;;;;;;;4.00;2.70;;;22.00;95.40;;;;;;5000265;28;20146;-68
2023/07/01 07:35:37;;;;;;;4.05;2.65;;;22.10;95.10;;;;;;5000701;28;20467;-68
2023/07/01 07:38:23;;;;;;;4.32;2.88;;;22.10;94.90;;;;;;4992862;28;20038;-68
2023/07/01 07:41:10;;;;;;;4.88;2.70;;;22.20;94.70;;;;;;5002882;28;20398;-67
2023/07/01 07:43:56;;;;;;;2.60;1.90;;;22.20;94.30;;;;;;5004031;28;20106;-67
2023/07/01 07:46:42;;;;;;;4.03;2.28;;;22.30;93.80;;;;;;5005320;28;20030;-67
2023/07/01 07:49:28;;;;;;;1.92;1.70;;;22.30;93.10;;;;;;5008344;28;20132;-67
2023/07/01 07:52:14;;;;;;;3.85;1.77;;;22.40;92.60;;;;;;4992859;28;20219;-68
2023/07/01 07:55:00;;;;;;;3.28;1.90;;;22.40;92.50;;;;;;5003185;28;20024;-67
2023/07/01 07:57:46;;;;;;;3.20;2.15;;;22.40;92.30;;;;;;5006095;28;20034;-67
2023/07/01 08:00:32;;;;;;;5.13;2.22;;;22.50;92.20;;;;;;5000119;28;20041;-67
2023/07/01 08:03:18;;;;;;;5.18;2.50;;;22.50;91.90;;;;;;5006132;28;20038;-67
2023/07/01 08:06:05;;;;;;;3.10;1.98;;;22.50;91.80;;;;;;5008400;28;20030;-68
2023/07/01 08:08:51;;;;;;;3.30;2.15;;;22.60;91.50;;;;;;5008744;28;20367;-67
2023/07/01 08:11:37;;;;;;;3.15;2.05;;;22.60;91.00;;;;;;5001421;28;20054;-67
2023/07/01 08:14:23;;;;;;;6.03;2.40;;;22.70;91.00;;;;;;4997247;28;20026;-68
2023/07/01 08:17:08;;;;;;;4.38;2.50;;;22.80;90.40;;;;;;4995236;28;20026;-68
2023/07/01 08:19:54;;;;;;;3.88;2.30;;;22.80;90.30;;;;;;5006327;28;20033;-68
2023/07/01 08:22:40;;;;;;;12.85;2.60;;;22.80;90.60;;;;;;5005214;28;20033;-67
2023/07/01 08:25:26;;;;;;;4.03;2.38;;;22.90;90.20;;;;;;5008559;28;20049;-67
2023/07/01 08:28:12;;;;;;;2.15;1.90;;;22.90;89.50;;;;;;4996258;28;20034;-67
2023/07/01 08:30:58;;;;;;;6.22;2.28;;;23.00;89.40;;;;;;4996800;28;20081;-68
2023/07/01 08:33:44;;;;;;;3.53;2.10;;;23.00;88.80;;;;;;5007377;28;20038;-67
2023/07/01 08:36:30;;;;;;;3.03;1.98;;;23.00;88.80;;;;;;5006880;28;20092;-67
2023/07/01 08:39:16;;;;;;;3.20;2.10;;;23.10;88.30;;;;;;4988894;28;20035;-67
2023/07/01 08:42:06;;;;;;;3.65;1.98;;;23.20;87.70;;;;;;4997882;28;20026;-73
2023/07/01 08:44:53;;;;;;;3.28;2.30;;;23.20;86.50;;;;;;5003075;28;20034;-75
2023/07/01 08:47:40;;;;;;;4.75;2.50;;;23.30;86.60;;;;;;5003636;28;20026;-67
2023/07/01 08:50:37;;;;;;;4.10;2.05;;;23.30;86.80;;;;;;5000043;28;20485;-68
2023/07/01 08:53:25;;;;;;;3.40;2.13;;;23.30;86.50;;;;;;5006795;28;20041;-75
2023/07/01 08:56:13;;;;;;;4.55;2.75;;;23.40;85.70;;;;;;5006179;28;20490;-73
2023/07/01 08:58:59;;;;;;;3.97;1.95;;;23.50;85.20;;;;;;5014979;28;20502;-70
2023/07/01 09:01:45;;;;;;;6.50;1.65;;;23.50;84.70;;;;;;5001135;28;20474;-72
2023/07/01 09:04:31;;;;;;;3.25;1.67;;;23.60;84.10;;;;;;5013851;28;20061;-74
2023/07/01 09:07:17;;;;;;;3.30;1.67;;;23.60;83.20;;;;;;5008952;28;20049;-74
2023/07/01 09:10:04;;;;;;;3.17;1.50;;;23.60;83.50;;;;;;5010633;28;20034;-74
2023/07/01 09:12:50;;;;;;;4.00;1.70;;;23.70;82.90;;;;;;5009070;28;20049;-74
2023/07/01 09:15:47;;;;;;;5.28;2.00;;;23.70;82.90;;;;;;5002508;28;20112;-76
2023/07/01 09:18:34;;;;;;;3.33;1.73;;;23.80;82.90;;;;;;5012684;28;20037;-72
2023/07/01 09:21:20;;;;;;;2.22;1.50;;;23.80;83.20;;;;;;5011354;28;20153;-71
2023/07/01 09:24:08;;;;;;;2.75;1.70;;;23.90;82.40;;;;;;4993775;28;20082;-74
2023/07/01 09:26:54;;;;;;;3.45;2.20;;;24.00;82.00;;;;;;5006801;28;20388;-74
2023/07/01 09:29:43;;;;;;;2.85;1.95;;;24.00;81.50;;;;;;5009815;28;20034;-74
2023/07/01 09:32:29;;;;;;;3.85;1.92;;;24.10;81.10;;;;;;4998149;28;20036;-74
2023/07/01 09:35:15;;;;;;;4.35;1.88;;;24.20;81.10;;;;;;5005472;28;20120;-74
2023/07/01 09:38:02;;;;;;;9.48;2.25;;;24.20;80.80;;;;;;5009242;28;20113;-74
2023/07/01 09:40:47;;;;;;;7.40;2.22;;;24.20;80.70;;;;;;5013751;28;20025;-75
2023/07/01 09:43:34;;;;;;;3.92;2.25;;;24.30;80.10;;;;;;4994751;28;20030;-74
2023/07/01 09:46:20;;;;;;;3.92;1.65;;;24.30;80.00;;;;;;5008368;28;20025;-73
2023/07/01 09:49:07;;;;;;;2.90;1.80;;;24.40;79.90;;;;;;4997792;28;20033;-74
2023/07/01 09:51:54;;;;;;;7.32;2.53;;;24.50;79.70;;;;;;5006808;28;20053;-75
2023/07/01 09:54:42;;;;;;;8.80;1.92;;;24.50;79.50;;;;;;5008420;28;20034;-75
2023/07/01 09:57:29;;;;;;;4.68;2.10;;;24.50;79.60;;;;;;4999790;28;20038;-75
2023/07/01 10:00:16;;;;;;;3.97;1.80;;;24.60;78.80;;;;;;5009762;28;20040;-75
2023/07/01 10:03:02;;;;;;;7.25;2.58;;;24.60;78.80;;;;;;5008568;28;20038;-75
2023/07/01 10:05:51;;;;;;;3.03;1.63;;;24.60;78.80;;;;;;5012131;28;20475;-75
2023/07/01 10:08:37;;;;;;;3.15;1.65;;;24.70;78.10;;;;;;5008376;28;20053;-75
2023/07/01 10:11:24;;;;;;;3.20;2.15;;;24.70;77.80;;;;;;5008259;28;20403;-75
2023/07/01 10:14:11;;;;;;;4.28;1.80;;;24.80;77.60;;;;;;4993265;28;20034;-77
2023/07/01 10:16:58;;;;;;;3.28;1.60;;;24.90;77.50;;;;;;4998563;28;20057;-77
2023/07/01 10:19:47;;;;;;;4.18;2.10;;;24.90;76.80;;;;;;4997524;28;20053;-77
2023/07/01 10:22:34;;;;;;;2.88;1.70;;;25.10;76.90;;;;;;5010139;28;20398;-78
2023/07/01 10:25:40;;;;;;;3.22;2.55;;;25.10;76.90;;;;;;5002433;28;20038;-78
2023/07/01 10:28:27;;;;;;;3.20;1.85;;;25.20;77.00;;;;;;5007082;28;20045;-76
2023/07/01 10:31:13;;;;;;;4.40;2.40;;;25.30;76.60;;;;;;5009394;28;20050;-80
2023/07/01 10:33:59;;;;;;;2.83;1.67;;;25.40;76.30;;;;;;5000742;28;20026;-77
2023/07/01 10:37:14;;;;;;;5.57;2.55;;;25.40;76.60;;;;;;5005241;28;20033;-78
2023/07/01 10:40:29;;;;;;;4.13;1.77;;;25.50;76.50;;;;;;5010593;28;20034;-77
2023/07/01 10:43:24;;;;;;;2.63;1.70;;;25.50;76.10;;;;;;5008695;28;20038;-79
2023/07/01 10:46:22;;;;;;;3.65;2.17;;;25.50;76.00;;;;;;5000525;28;20036;-74
2023/07/01 10:49:08;;;;;;;5.88;1.83;;;25.60;75.30;;;;;;4993015;28;20475;-78
2023/07/01 10:51:54;;;;;;;4.10;2.10;;;25.70;74.90;;;;;;4995507;28;20078;-78
2023/07/01 10:54:40;;;;;;;3.15;1.75;;;25.70;75.00;;;;;;5006628;28;20461;-76
2023/07/01 10:57:26;;;;;;;4.10;1.83;;;25.80;74.90;;;;;;5008374;28;20034;-76
2023/07/01 11:00:35;;;;;;;3.42;2.00;;;25.80;74.80;;;;;;5005623;28;20104;-76
2023/07/01 11:03:36;;;;;;;8.80;2.33;;;25.90;74.80;;;;;;5007253;28;20099;-76
2023/07/01 11:06:22;;;;;;;4.65;2.22;;;26.00;74.80;;;;;;5001331;28;20042;-78
2023/07/01 11:09:08;;;;;;;3.22;1.88;;;26.10;74.70;;;;;;5009974;28;20061;-72
2023/07/01 11:11:56;;;;;;;2.65;1.85;;;26.20;75.00;;;;;;5003128;28;20034;-70
2023/07/01 11:14:42;;;;;;;3.97;2.67;;;26.20;75.30;;;;;;5010868;28;20320;-75
2023/07/01 11:17:28;;;;;;;7.68;2.47;;;26.40;75.10;;;;;;5007552;28;20436;-75
2023/07/01 11:20:14;;;;;;;3.13;1.95;;;26.40;74.60;;;;;;4999724;28;20065;-74
2023/07/01 11:23:00;;;;;;;8.73;3.30;;;26.40;74.20;;;;;;5003935;28;20093;-73
2023/07/01 11:25:46;;;;;;;3.78;2.33;;;26.30;73.80;;;;;;5015543;28;20105;-73
2023/07/01 11:28:36;;;;;;;8.75;2.58;;;26.40;73.50;;;;;;5006902;28;20037;-74
2023/07/01 11:31:31;;;;;;;4.45;2.17;;;26.40;73.40;;;;;;5007544;28;20046;-73
2023/07/01 11:34:17;;;;;;;2.88;1.65;;;26.50;73.30;;;;;;5006888;28;20034;-78
2023/07/01 11:37:03;;;;;;;3.33;2.03;;;26.50;73.70;;;;;;5005542;28;20117;-77
2023/07/01 11:39:49;;;;;;;3.00;1.80;;;26.60;73.40;;;;;;4996393;28;20103;-77
2023/07/01 11:42:35;;;;;;;5.35;2.35;;;26.70;73.40;;;;;;5000133;28;20061;-78
2023/07/01 11:45:21;;;;;;;4.63;1.73;;;26.70;73.60;;;;;;5003674;28;20026;-78
2023/07/01 11:48:07;;;;;;;3.22;1.80;;;26.70;73.50;;;;;;5007959;28;20038;-77
2023/07/01 11:50:53;;;;;;;9.13;2.78;;;26.70;73.10;;;;;;5007098;28;20072;-78
2023/07/01 11:53:58;;;;;;;3.00;1.88;;;26.80;72.90;;;;;;5001976;28;20104;-77
2023/07/01 11:56:44;;;;;;;4.32;2.05;;;26.80;73.00;;;;;;5006960;28;20490;-80
2023/07/01 11:59:33;;;;;;;7.80;2.13;;;26.90;72.50;;;;;;5008159;28;20041;-71
2023/07/01 12:02:29;;;;;;;4.45;2.20;;;27.00;72.10;;;;;;5004900;28;20041;-69
2023/07/01 12:05:19;;;;;;;3.55;1.85;;;27.00;71.70;;;;;;5006535;28;20050;-65
2023/07/01 12:08:05;;;;;;;5.32;2.35;;;27.00;71.40;;;;;;5000228;28;20057;-66
2023/07/01 12:10:52;;;;;;;3.33;2.00;;;27.10;71.30;;;;;;4997234;28;20422;-66
2023/07/01 12:13:38;;;;;;;4.95;2.47;;;27.00;70.80;;;;;;5000854;28;20030;-66
2023/07/01 12:16:41;;;;;;;3.90;1.88;;;27.10;71.40;;;;;;5004002;28;20034;-66
2023/07/01 12:19:29;;;;;;;5.43;2.50;;;27.10;71.20;;;;;;5006678;28;20038;-66
2023/07/01 12:22:15;;;;;;;4.28;2.30;;;27.10;71.10;;;;;;5004301;28;20067;-66
2023/07/01 12:25:01;;;;;;;4.22;1.70;;;27.10;70.60;;;;;;4996030;28;20065;-66
2023/07/01 12:27:47;;;;;;;4.43;2.10;;;27.20;70.90;;;;;;4993337;28;20574;-66
2023/07/01 12:30:33;;;;;;;4.28;2.20;;;27.20;70.60;;;;;;5004048;28;20026;-66
2023/07/01 12:33:19;;;;;;;3.40;2.22;;;27.20;69.90;;;;;;4999223;28;20121;-66
2023/07/01 12:36:06;;;;;;;3.40;2.40;;;27.20;70.00;;;;;;5003549;28;20101;-66
2023/07/01 12:38:52;;;;;;;4.15;2.47;;;27.10;69.70;;;;;;5006589;28;20030;-68
2023/07/01 12:41:39;;;;;;;3.25;2.42;;;27.10;70.10;;;;;;5009461;28;20380;-65
2023/07/01 12:44:25;;;;;;;4.20;2.17;;;27.20;70.10;;;;;;5005143;28;20073;-65
2023/07/01 12:47:11;;;;;;;4.25;2.22;;;27.30;70.20;;;;;;5004998;28;20030;-66
2023/07/01 12:49:57;;;;;;;6.57;2.05;;;27.50;69.50;;;;;;4994429;28;20395;-65
2023/07/01 12:52:44;;;;;;;5.55;1.95;;;27.70;69.10;;;;;;4997206;28;20104;-65
2023/07/01 12:55:30;;;;;;;3.35;2.38;;;27.90;68.30;;;;;;5003970;28;20037;-65
2023/07/01 12:58:17;;;;;;;4.07;1.95;;;28.00;67.40;;;;;;5001722;28;20498;-65
2023/07/01 13:01:04;;;;;;;5.97;2.20;;;28.00;66.30;;;;;;5005098;28;20317;-66
2023/07/01 13:03:50;;;;;;;3.70;1.98;;;28.00;66.10;;;;;;5003765;28;20030;-65
2023/07/01 13:06:39;;;;;;;3.50;2.00;;;28.10;65.70;;;;;;5008814;28;20065;-66
2023/07/01 13:09:48;;;;;;;3.28;2.10;;;28.10;65.60;;;;;;5007806;28;20045;-66
2023/07/01 13:12:35;;;;;;;6.65;2.13;;;28.00;65.60;;;;;;5001731;28;20049;-66
2023/07/01 13:15:30;;;;;;;5.25;2.35;;;27.90;65.30;;;;;;5008058;28;20450;-66
2023/07/01 13:18:19;;;;;;;;;;;27.90;65.30;;;;;;4998843;28;20291;-66
2023/07/01 13:21:05;;;;;;;3.35;1.88;;;27.80;66.00;;;;;;4994676;28;19913;-66
2023/07/01 13:23:53;;;;;;;5.10;2.83;;;27.80;65.30;;;;;;5003967;28;20064;-67
2023/07/01 13:26:44;;;;;;;6.05;2.45;;;27.70;65.40;;;;;;5003919;28;20167;-66
2023/07/01 13:29:33;;;;;;;3.47;2.17;;;27.70;64.90;;;;;;5004562;28;20450;-66
2023/07/01 13:32:23;;;;;;;5.13;2.47;;;27.60;64.80;;;;;;4999697;28;20112;-66
2023/07/01 13:35:12;;;;;;;4.03;2.42;;;27.50;64.90;;;;;;5007258;28;20037;-66
2023/07/01 13:38:05;;;;;;;4.30;2.20;;;27.50;65.30;;;;;;5004914;28;20034;-66
2023/07/01 13:40:52;;;;;;;7.25;2.78;;;27.40;64.80;;;;;;5004379;28;20403;-66
2023/07/01 13:43:39;;;;;;;4.38;2.65;;;27.30;64.90;;;;;;5002212;28;20125;-66
2023/07/01 13:46:34;;;;;;;4.45;2.60;;;27.20;64.50;;;;;;5004088;28;20064;-66
2023/07/01 13:49:25;;;;;;;5.90;2.83;;;27.10;64.50;;;;;;5002772;28;20031;-65
2023/07/01 13:52:11;;;;;;;5.70;2.50;;;27.00;64.80;;;;;;5009200;28;20037;-66
2023/07/01 13:54:57;;;;;;;3.78;2.15;;;26.90;65.10;;;;;;4998970;28;20053;-66
2023/07/01 13:57:47;;;;;;;4.38;2.50;;;26.70;65.50;;;;;;5003016;28;20111;-66
2023/07/01 14:00:48;;;;;;;6.07;2.47;;;26.60;66.00;;;;;;5010600;28;20021;-67
2023/07/01 14:03:45;;;;;;;4.10;2.28;;;26.50;66.30;;;;;;4994075;28;20570;-67
2023/07/01 14:06:37;;;;;;;2.75;2.00;;;26.50;66.70;;;;;;4998744;28;20479;-66
2023/07/01 14:09:25;;;;;;;4.32;2.50;;;26.40;66.90;;;;;;5011302;28;20044;-66
2023/07/01 14:12:14;;;;;;;3.97;2.30;;;26.30;66.70;;;;;;5001575;28;20116;-66
2023/07/01 14:15:05;;;;;;;5.35;2.25;;;26.20;66.50;;;;;;5001568;28;20275;-66
2023/07/01 14:17:51;;;;;;;4.22;2.75;;;26.10;66.50;;;;;;5004142;28;20030;-66
2023/07/01 14:20:37;;;;;;;9.35;2.92;;;26.10;67.00;;;;;;5006042;28;20072;-66
2023/07/01 14:23:35;;;;;;;5.03;2.30;;;26.00;67.30;;;;;;5007618;28;20490;-66
2023/07/01 14:26:28;;;;;;;4.68;2.20;;;26.00;67.10;;;;;;5007571;28;20041;-66
2023/07/01 14:29:16;;;;;;;7.00;3.20;;;26.00;67.00;;;;;;5008955;28;20119;-65
2023/07/01 14:32:07;;;;;;;5.45;3.17;;;25.90;67.20;;;;;;4995158;28;20482;-67
2023/07/01 14:34:53;;;;;;;4.70;3.00;;;25.90;67.40;;;;;;4990554;28;20102;-65